South Heights, Pennsylvania
Current Conditions -  °F | °C
As of 4:51 AM on Tuesday 27 Jan 2015 (Local Time) from KPIT Reporting Station
Light Snow Light Snow  
Wind Chill:   Ceiling: 1200
Heat Index: 19°   Visibility: 4mi
Dew Point: 16°   Wind: 8mph
Humidity: 88%   Direction: 330°NNW
Pressure: 29.85"   Gusts: NA
Location:  40.57°N, 80.24°W
Report Text: KPIT 270951Z 33007KT 4SM -SN BR OVC012 M07/M09 A2985 RMK AO2 SLP133 P0000 T10721089
Loading
Personal Weather Stations






























Interactive Weather Map New forecast layout! Learn more

10-Day Weather Forecast

Advertisements
Track Severe Weather on mobile